.
WxDataArchive / Data Records for 2007-04-20
2007-04-19 April 2007 2007-04-21

Data Records for Friday, 20 April 2007

Time	Temp	Chill	HIndex	Humid	Dewpt	 Wind 	HiWind	WindDir	Rain 	Barom 
-----	----	-----	------	-----	-----	------	------	-------	-----	----- 
00:00	46.0	46.0	46.0	70	36.8	1	3	112	0.00	30.106 
00:05	46.1	46.1	46.1	70	36.9	2	5	90	0.00	30.105 
00:10	46.2	46.2	46.2	69	36.6	2	4	112	0.00	30.106 
00:15	46.2	46.2	46.2	69	36.6	2	4	112	0.00	30.109 
00:20	46.2	46.2	46.2	69	36.6	2	4	90	0.00	30.113 
00:25	46.2	46.2	46.2	69	36.6	1	4	112	0.00	30.115 
00:30	46.2	46.2	46.2	69	36.6	0	2	112	0.00	30.119 
00:35	46.1	46.1	46.1	69	36.5	0	1	112	0.00	30.122 
00:40	45.8	45.8	45.8	69	36.2	0	0	---	0.00	30.126 
00:45	45.4	45.4	45.4	69	35.8	0	0	---	0.00	30.127 
00:50	45.1	45.1	45.1	70	35.9	0	0	---	0.00	30.133 
00:55	44.6	44.6	44.6	70	35.4	0	0	---	0.00	30.135 
01:00	44.1	44.1	44.1	72	35.7	0	0	---	0.00	30.137 
01:05	43.5	43.5	43.5	73	35.4	0	0	---	0.00	30.135 
01:10	43.2	43.2	43.2	73	35.1	0	0	---	0.00	30.134 
01:15	42.8	42.8	42.8	74	35.1	0	0	---	0.00	30.133 
01:20	42.5	42.5	42.5	75	35.1	0	0	---	0.00	30.130 
01:25	42.1	42.1	42.1	76	35.1	0	0	---	0.00	30.129 
01:30	41.9	41.9	41.9	77	35.2	0	0	---	0.00	30.127 
01:35	41.8	41.8	41.8	77	35.1	0	0	---	0.00	30.127 
01:40	41.6	41.6	41.6	77	34.9	0	0	---	0.00	30.125 
01:45	41.3	41.3	41.3	78	35.0	0	0	---	0.00	30.124 
01:50	41.1	41.1	41.1	78	34.8	0	0	---	0.00	30.123 
01:55	40.8	40.8	40.8	79	34.8	0	0	---	0.00	30.124 
02:00	40.6	40.6	40.6	80	34.9	0	1	112	0.00	30.127 
02:05	40.8	40.8	40.8	80	35.1	0	0	---	0.00	30.131 
02:10	40.8	40.8	40.8	80	35.1	0	0	---	0.00	30.135 
02:15	40.8	40.8	40.8	79	34.8	0	0	---	0.00	30.137 
02:20	40.8	40.8	40.8	79	34.8	0	0	---	0.00	30.138 
02:25	40.6	40.6	40.6	79	34.6	0	0	---	0.00	30.138 
02:30	40.5	40.5	40.5	79	34.5	0	0	---	0.00	30.138 
02:35	40.3	40.3	40.3	79	34.3	0	1	112	0.00	30.138 
02:40	40.3	40.3	40.3	80	34.6	0	1	112	0.00	30.140 
02:45	40.2	40.2	40.2	80	34.5	0	0	---	0.00	30.146 
02:50	39.9	39.9	39.9	80	34.2	0	0	---	0.00	30.149 
02:55	39.6	39.6	39.6	81	34.3	0	0	---	0.00	30.150 
03:00	39.3	39.3	39.3	81	34.0	0	0	---	0.00	30.153 
03:05	39.2	39.2	39.2	82	34.2	0	0	---	0.00	30.154 
03:10	39.1	39.1	39.1	82	34.1	0	0	---	0.00	30.155 
03:15	38.8	38.8	38.8	83	34.1	0	0	---	0.00	30.156 
03:20	38.6	38.6	38.6	83	33.9	0	0	---	0.00	30.155 
03:25	38.3	38.3	38.3	83	33.6	0	0	---	0.00	30.156 
03:30	38.2	38.2	38.2	84	33.8	0	0	---	0.00	30.158 
03:35	37.9	37.9	37.9	85	33.8	0	0	---	0.00	30.162 
03:40	37.6	37.6	37.6	85	33.5	0	0	---	0.00	30.163 
03:45	37.6	37.6	37.6	85	33.5	0	0	---	0.00	30.164 
03:50	37.5	37.5	37.5	85	33.4	0	0	---	0.00	30.164 
03:55	37.2	37.2	37.2	85	33.1	0	0	---	0.00	30.167 
04:00	37.0	37.0	37.0	86	33.2	0	0	---	0.00	30.167 
04:05	36.9	36.9	36.9	86	33.1	0	0	---	0.00	30.169 
04:10	36.8	36.8	36.8	86	33.0	0	0	---	0.00	30.170 
04:15	36.8	36.8	36.8	87	33.3	0	0	---	0.00	30.171 
04:20	36.9	36.9	36.9	87	33.4	0	0	---	0.00	30.172 
04:25	36.9	36.9	36.9	88	33.7	0	0	---	0.00	30.172 
04:30	36.8	36.8	36.8	87	33.3	0	0	---	0.00	30.173 
04:35	36.6	36.6	36.6	88	33.4	0	0	---	0.00	30.174 
04:40	36.5	36.5	36.5	88	33.3	0	0	---	0.00	30.174 
04:45	36.3	36.3	36.3	88	33.1	0	0	---	0.00	30.174 
04:50	36.2	36.2	36.2	88	33.0	0	0	---	0.00	30.174 
04:55	36.2	36.2	36.2	89	33.3	0	0	---	0.00	30.174 
05:00	36.0	36.0	36.0	89	33.1	0	0	---	0.00	30.175 
05:05	36.0	36.0	36.0	89	33.1	0	0	---	0.00	30.180 
05:10	35.9	35.9	35.9	89	33.0	0	0	---	0.00	30.182 
05:15	35.8	35.8	35.8	89	32.9	0	0	---	0.00	30.186 
05:20	35.8	35.8	35.8	89	32.9	0	0	---	0.00	30.187 
05:25	35.6	35.6	35.6	89	32.7	0	0	---	0.00	30.187 
05:30	35.5	35.5	35.5	89	32.6	0	0	---	0.00	30.188 
05:35	35.3	35.3	35.3	90	32.7	0	0	---	0.00	30.189 
05:40	35.3	35.3	35.3	90	32.7	0	0	---	0.00	30.190 
05:45	35.5	35.5	35.5	90	32.9	0	0	---	0.00	30.191 
05:50	35.5	35.5	35.5	90	32.9	0	0	---	0.00	30.193 
05:55	35.3	35.3	35.3	90	32.7	0	0	---	0.00	30.195 
06:00	35.3	35.3	35.3	90	32.7	0	0	---	0.00	30.196 
06:05	35.2	35.2	35.2	91	32.8	0	0	---	0.00	30.203 
06:10	35.2	35.2	35.2	91	32.8	0	0	---	0.00	30.205 
06:15	35.3	35.3	35.3	91	32.9	0	0	---	0.00	30.204 
06:20	35.8	35.8	35.8	92	33.7	0	0	---	0.00	30.205 
06:25	36.0	36.0	36.0	92	33.9	0	0	---	0.00	30.207 
06:30	36.2	36.2	36.2	92	34.1	0	0	---	0.00	30.207 
06:35	36.5	36.5	36.5	92	34.4	0	0	---	0.00	30.209 
06:40	36.9	36.9	36.9	92	34.8	0	0	---	0.00	30.213 
06:45	37.9	37.9	37.9	93	36.1	0	0	---	0.00	30.210 
06:50	39.1	39.1	39.1	91	36.7	0	0	---	0.00	30.210 
06:55	40.3	40.3	40.3	88	37.0	0	1	112	0.00	30.210 
07:00	41.6	41.6	41.6	85	37.4	0	0	---	0.00	30.210 
07:05	42.6	42.6	42.6	83	37.8	0	1	112	0.00	30.213 
07:10	43.9	43.9	43.9	79	37.8	0	1	112	0.00	30.214 
07:15	45.4	45.4	45.4	75	37.9	0	2	112	0.00	30.215 
07:20	46.5	46.5	46.5	73	38.3	0	1	112	0.00	30.217 
07:25	47.7	47.7	47.7	70	38.4	0	1	112	0.00	30.216 
07:30	48.5	48.5	48.5	69	38.8	0	2	112	0.00	30.217 
07:35	49.2	49.2	49.2	67	38.7	0	1	112	0.00	30.214 
07:40	50.2	50.2	50.2	65	38.9	0	1	112	0.00	30.215 
07:45	50.7	50.7	50.7	64	39.0	0	2	112	0.00	30.214 
07:50	51.6	51.6	51.6	61	38.6	0	1	112	0.00	30.219 
07:55	52.0	52.0	52.0	62	39.4	0	2	112	0.00	30.226 
08:00	52.6	52.6	52.6	61	39.5	0	1	112	0.00	30.226 
08:05	53.2	53.2	53.2	58	38.8	0	1	112	0.00	30.229 
08:10	54.1	54.1	54.1	56	38.8	0	2	112	0.00	30.229 
08:15	54.7	54.7	54.7	54	38.4	0	1	112	0.00	30.229 
08:20	55.1	55.1	55.1	55	39.2	0	2	68	0.00	30.230 
08:25	55.4	55.4	55.4	52	38.1	0	2	68	0.00	30.230 
08:30	56.0	56.0	56.0	51	38.1	0	2	68	0.00	30.229 
08:35	56.2	56.2	56.2	50	37.8	1	2	68	0.00	30.229 
08:40	56.6	56.6	56.6	55	40.6	0	2	68	0.00	30.229 
08:45	57.2	57.2	57.2	51	39.2	0	2	68	0.00	30.230 
08:50	57.5	57.5	57.5	52	40.0	0	2	68	0.00	30.229 
08:55	57.5	57.5	57.5	52	40.0	0	2	68	0.00	30.227 
09:00	57.5	57.5	57.5	51	39.5	1	3	68	0.00	30.228 
09:05	58.1	58.1	58.1	51	40.1	1	2	68	0.00	30.229 
09:10	58.4	58.4	58.4	48	38.8	0	2	68	0.00	30.230 
09:15	58.7	58.7	58.7	48	39.1	0	2	68	0.00	30.230 
09:20	59.0	59.0	59.0	48	39.3	0	2	68	0.00	30.229 
09:25	59.3	59.3	59.3	50	40.7	1	3	68	0.00	30.230 
09:30	59.6	59.6	59.6	47	39.3	2	6	90	0.00	30.228 
09:35	59.6	59.6	59.6	45	38.2	3	7	90	0.00	30.227 
09:40	59.5	59.5	59.5	45	38.1	3	6	112	0.00	30.230 
09:45	59.9	59.9	59.9	48	40.2	1	6	90	0.00	30.231 
09:50	60.4	60.4	60.4	47	40.1	2	5	112	0.00	30.231 
09:55	60.9	60.9	60.9	44	38.8	1	4	68	0.00	30.230 
10:00	61.6	61.6	61.6	38	35.7	2	6	90	0.00	30.231 
10:05	61.5	61.5	61.5	45	40.0	3	7	90	0.00	30.231 
10:10	61.5	61.5	61.5	39	36.3	4	7	112	0.00	30.231 
10:15	61.2	61.2	61.2	42	37.9	5	9	112	0.00	30.231 
10:20	61.3	61.3	61.3	42	38.0	4	11	112	0.00	30.230 
10:25	62.0	62.0	62.0	40	37.4	2	5	112	0.00	30.231 
10:30	62.4	62.4	62.4	41	38.4	3	6	112	0.00	30.230 
10:35	63.2	63.2	63.2	46	42.1	2	6	112	0.00	30.227 
10:40	63.2	63.2	63.2	39	37.8	3	7	90	0.00	30.226 
10:45	63.4	63.4	63.4	38	37.3	2	5	68	0.00	30.224 
10:50	63.5	63.5	63.5	39	38.1	2	5	90	0.00	30.222 
10:55	63.5	63.5	63.5	39	38.1	1	6	45	0.00	30.224 
11:00	63.9	63.9	63.9	38	37.8	4	10	112	0.00	30.224 
11:05	63.9	63.9	63.9	35	35.7	4	7	112	0.00	30.225 
11:10	64.0	64.0	64.0	32	33.5	3	9	112	0.00	30.224 
11:15	64.5	64.5	64.5	31	33.2	3	10	90	0.00	30.223 
11:20	64.7	64.7	64.7	31	33.4	3	7	112	0.00	30.225 
11:25	64.3	64.3	64.3	27	29.6	6	13	112	0.00	30.225 
11:30	64.3	64.3	64.3	33	34.6	3	11	90	0.00	30.224 
11:35	65.0	65.0	65.0	27	30.2	3	6	112	0.00	30.222 
11:40	65.3	65.3	65.3	28	31.4	3	7	112	0.00	30.221 
11:45	65.3	65.3	65.3	27	30.5	4	11	112	0.00	30.218 
11:50	65.5	65.5	65.5	28	31.5	3	7	112	0.00	30.214 
11:55	65.6	65.6	65.6	28	31.6	4	9	112	0.00	30.212 
12:00	65.5	65.5	65.5	27	30.6	4	10	112	0.00	30.211 
12:05	65.6	65.6	65.6	29	32.5	4	10	112	0.00	30.211 
12:10	65.6	65.6	65.6	28	31.6	4	10	112	0.00	30.210 
12:15	65.8	65.8	65.8	22	25.9	5	13	112	0.00	30.211 
12:20	65.8	65.8	65.8	25	29.0	4	13	112	0.00	30.211 
12:25	66.0	66.0	66.0	22	26.1	4	9	112	0.00	30.211 
12:30	66.3	66.3	66.3	25	29.4	4	10	112	0.00	30.212 
12:35	66.0	66.0	66.0	24	28.2	5	11	112	0.00	30.212 
12:40	66.3	66.3	66.3	23	27.4	2	8	112	0.00	30.210 
12:45	66.6	66.6	66.6	20	24.3	4	10	112	0.00	30.210 
12:50	66.9	66.9	66.9	22	26.8	3	8	112	0.00	30.211 
12:55	66.8	66.8	66.8	23	27.8	3	7	112	0.00	30.209 
13:00	66.9	66.9	66.9	21	25.7	5	11	90	0.00	30.209 
13:05	67.1	67.1	67.1	21	25.9	2	6	112	0.00	30.210 
13:10	66.9	66.9	66.9	20	24.5	4	12	112	0.00	30.210 
13:15	66.9	66.9	66.9	23	27.9	3	10	112	0.00	30.210 
13:20	67.4	67.4	67.4	26	31.3	2	8	112	0.00	30.209 
13:25	67.6	67.6	67.6	23	28.5	3	9	112	0.00	30.209 
13:30	67.4	67.4	67.4	19	23.7	4	9	112	0.00	30.211 
13:35	67.6	67.6	67.6	26	31.5	1	5	90	0.00	30.209 
13:40	67.8	67.8	67.8	20	25.3	3	10	112	0.00	30.210 
13:45	67.8	67.8	67.8	23	28.7	5	9	112	0.00	30.209 
13:50	67.3	67.3	67.3	20	24.9	3	7	112	0.00	30.209 
13:55	67.6	67.6	67.6	21	26.3	3	9	112	0.00	30.209 
14:00	68.1	68.1	68.1	20	25.5	3	6	112	0.00	30.209 
14:05	68.1	68.1	68.1	20	25.5	3	7	112	0.00	30.208 
14:10	68.1	68.1	68.1	20	25.5	4	9	90	0.00	30.206 
14:15	68.1	68.1	68.1	24	29.9	4	7	112	0.00	30.202 
14:20	68.3	68.3	68.3	19	24.5	3	6	90	0.00	30.201 
14:25	68.3	68.3	68.3	20	25.7	2	5	90	0.00	30.199 
14:30	68.3	68.3	68.3	19	24.5	4	7	112	0.00	30.199 
14:35	68.4	68.4	68.4	21	26.9	1	5	135	0.00	30.198 
14:40	68.8	68.8	68.8	21	27.3	2	6	112	0.00	30.195 
14:45	68.6	68.6	68.6	19	24.7	3	9	112	0.00	30.194 
14:50	68.4	68.4	68.4	19	24.5	3	7	112	0.00	30.194 
14:55	68.6	68.6	68.6	20	25.9	2	5	112	0.00	30.192 
15:00	68.4	68.4	68.4	19	24.5	4	11	112	0.00	30.189 
15:05	68.4	68.4	68.4	19	24.5	2	6	112	0.00	30.186 
15:10	68.8	68.8	68.8	20	26.1	2	7	112	0.00	30.185 
15:15	68.8	68.8	68.8	19	24.9	4	9	112	0.00	30.186 
15:20	68.9	68.9	68.9	21	27.4	3	7	90	0.00	30.184 
15:25	68.6	68.6	68.6	19	24.7	5	11	112	0.00	30.185 
15:30	68.8	68.8	68.8	21	27.3	3	7	112	0.00	30.184 
15:35	68.8	68.8	68.8	20	26.1	4	7	112	0.00	30.184 
15:40	68.8	68.8	68.8	23	29.5	3	6	112	0.00	30.183 
15:45	68.9	68.9	68.9	19	24.9	2	5	112	0.00	30.183 
15:50	69.1	69.1	69.1	16	21.0	2	4	112	0.00	30.183 
15:55	68.9	68.9	68.9	18	23.7	2	5	112	0.00	30.183 
16:00	69.1	69.1	69.1	18	23.8	1	3	112	0.00	30.182 
16:05	69.3	69.3	69.3	20	26.5	1	6	90	0.00	30.183 
16:10	69.1	69.1	69.1	18	23.8	2	5	112	0.00	30.183 
16:15	68.9	68.9	68.9	20	26.2	3	6	112	0.00	30.182 
16:20	68.8	68.8	68.8	20	26.1	2	4	112	0.00	30.181 
16:25	68.6	68.6	68.6	19	24.7	1	5	112	0.00	30.181 
16:30	68.6	68.6	68.6	19	24.7	2	5	112	0.00	30.180 
16:35	68.4	68.4	68.4	19	24.5	3	7	112	0.00	30.177 
16:40	68.1	68.1	68.1	20	25.5	3	5	112	0.00	30.179 
16:45	68.1	68.1	68.1	20	25.5	3	9	112	0.00	30.179 
16:50	68.3	68.3	68.3	19	24.5	3	7	112	0.00	30.179 
16:55	68.1	68.1	68.1	20	25.5	2	6	90	0.00	30.178 
17:00	68.3	68.3	68.3	21	26.9	2	3	90	0.00	30.175 
17:05	68.3	68.3	68.3	22	28.0	2	6	112	0.00	30.177 
17:10	68.3	68.3	68.3	21	26.9	2	4	112	0.00	30.178 
17:15	68.3	68.3	68.3	22	28.0	1	4	112	0.00	30.176 
17:20	68.3	68.3	68.3	19	24.5	0	2	45	0.00	30.175 
17:25	68.3	68.3	68.3	21	26.9	1	5	112	0.00	30.173 
17:30	68.1	68.1	68.1	19	24.3	0	2	112	0.00	30.171 
17:35	68.1	68.1	68.1	20	25.5	0	2	90	0.00	30.170 
17:40	67.9	67.9	67.9	22	27.7	1	3	112	0.00	30.168 
17:45	67.6	67.6	67.6	21	26.3	2	3	112	0.00	30.167 
17:50	67.6	67.6	67.6	21	26.3	1	3	112	0.00	30.167 
17:55	67.3	67.3	67.3	20	24.9	2	5	112	0.00	30.165 
18:00	67.1	67.1	67.1	19	23.5	2	5	112	0.00	30.164 
18:05	67.1	67.1	67.1	20	24.7	0	1	112	0.00	30.158 
18:10	67.1	67.1	67.1	21	25.9	1	4	112	0.00	30.158 
18:15	67.1	67.1	67.1	21	25.9	2	5	112	0.00	30.158 
18:20	66.9	66.9	66.9	20	24.5	1	4	90	0.00	30.157 
18:25	66.8	66.8	66.8	21	25.6	2	4	90	0.00	30.156 
18:30	66.6	66.6	66.6	21	25.4	2	4	90	0.00	30.157 
18:35	66.4	66.4	66.4	22	26.4	1	3	112	0.00	30.157 
18:40	66.3	66.3	66.3	21	25.2	1	2	112	0.00	30.156 
18:45	66.0	66.0	66.0	22	26.1	0	2	112	0.00	30.155 
18:50	65.6	65.6	65.6	22	25.7	1	4	90	0.00	30.155 
18:55	65.5	65.5	65.5	22	25.6	0	2	90	0.00	30.155 
19:00	65.0	65.0	65.0	22	25.2	1	3	90	0.00	30.155 
19:05	64.7	64.7	64.7	24	27.1	0	1	90	0.00	30.145 
19:10	64.2	64.2	64.2	23	25.6	0	2	90	0.00	30.147 
19:15	63.7	63.7	63.7	24	26.2	1	2	90	0.00	30.145 
19:20	63.2	63.2	63.2	24	25.8	0	2	90	0.00	30.144 
19:25	62.9	62.9	62.9	25	26.5	0	1	90	0.00	30.145 
19:30	62.3	62.3	62.3	25	26.0	0	0	---	0.00	30.148 
19:35	61.6	61.6	61.6	26	26.4	0	0	---	0.00	30.149 
19:40	60.9	60.9	60.9	27	26.7	0	0	---	0.00	30.150 
19:45	60.1	60.1	60.1	28	26.9	0	1	90	0.00	30.155 
19:50	59.5	59.5	59.5	28	26.4	0	0	---	0.00	30.156 
19:55	58.7	58.7	58.7	27	24.8	0	0	---	0.00	30.158 
20:00	58.1	58.1	58.1	28	25.2	0	0	---	0.00	30.161 
20:05	57.3	57.3	57.3	29	25.3	0	0	---	0.00	30.157 
20:10	56.7	56.7	56.7	30	25.6	0	0	---	0.00	30.160 
20:15	56.0	56.0	56.0	33	27.3	0	0	---	0.00	30.160 
20:20	55.1	55.1	55.1	33	26.5	0	0	---	0.00	30.162 
20:25	54.5	54.5	54.5	34	26.7	0	0	---	0.00	30.163 
20:30	53.9	53.9	53.9	35	26.9	0	0	---	0.00	30.163 
20:35	53.3	53.3	53.3	37	27.7	0	0	---	0.00	30.165 
20:40	52.8	52.8	52.8	37	27.3	0	0	---	0.00	30.168 
20:45	52.3	52.3	52.3	36	26.1	0	0	---	0.00	30.170 
20:50	51.9	51.9	51.9	36	25.8	0	0	---	0.00	30.173 
20:55	51.6	51.6	51.6	39	27.5	0	0	---	0.00	30.175 
21:00	51.1	51.1	51.1	39	27.0	0	0	---	0.00	30.178 
21:05	50.8	50.8	50.8	39	26.7	0	0	---	0.00	30.175 
21:10	50.5	50.5	50.5	39	26.5	0	0	---	0.00	30.175 
21:15	50.2	50.2	50.2	40	26.8	0	0	---	0.00	30.176 
21:20	49.9	49.9	49.9	40	26.6	0	0	---	0.00	30.176 
21:25	49.8	49.8	49.8	41	27.1	0	0	---	0.00	30.176 
21:30	49.5	49.5	49.5	43	27.9	0	0	---	0.00	30.176 
21:35	49.4	49.4	49.4	45	29.0	0	0	---	0.00	30.178 
21:40	48.9	48.9	48.9	45	28.5	0	0	---	0.00	30.179 
21:45	48.6	48.6	48.6	45	28.2	0	0	---	0.00	30.179 
21:50	48.2	48.2	48.2	46	28.4	0	0	---	0.00	30.179 
21:55	47.7	47.7	47.7	49	29.5	0	0	---	0.00	30.179 
22:00	47.3	47.3	47.3	49	29.1	0	0	---	0.00	30.180 
22:05	47.0	47.0	47.0	49	28.8	0	0	---	0.00	30.179 
22:10	46.8	46.8	46.8	49	28.7	0	0	---	0.00	30.179 
22:15	46.7	46.7	46.7	50	29.1	0	0	---	0.00	30.179 
22:20	46.5	46.5	46.5	49	28.4	0	0	---	0.00	30.181 
22:25	46.5	46.5	46.5	50	28.9	0	0	---	0.00	30.182 
22:30	46.4	46.4	46.4	51	29.3	0	0	---	0.00	30.183 
22:35	46.4	46.4	46.4	52	29.7	0	0	---	0.00	30.185 
22:40	46.2	46.2	46.2	53	30.0	0	0	---	0.00	30.187 
22:45	46.1	46.1	46.1	55	30.8	0	0	---	0.00	30.187 
22:50	46.0	46.0	46.0	57	31.6	0	0	---	0.00	30.186 
22:55	45.8	45.8	45.8	58	31.9	0	0	---	0.00	30.186 
23:00	45.7	45.7	45.7	62	33.4	0	0	---	0.00	30.188 
23:05	45.5	45.5	45.5	65	34.4	0	0	---	0.00	30.187 
23:10	45.2	45.2	45.2	62	33.0	0	0	---	0.00	30.188 
23:15	45.1	45.1	45.1	60	32.1	0	0	---	0.00	30.190 
23:20	44.9	44.9	44.9	60	31.9	0	0	---	0.00	30.191 
23:25	44.8	44.8	44.8	60	31.8	0	0	---	0.00	30.189 
23:30	44.5	44.5	44.5	62	32.3	0	0	---	0.00	30.189 
23:35	44.3	44.3	44.3	62	32.1	0	0	---	0.00	30.190 
23:40	44.2	44.2	44.2	62	32.0	0	0	---	0.00	30.191 
23:45	44.1	44.1	44.1	62	31.9	0	0	---	0.00	30.189 
23:50	43.9	43.9	43.9	62	31.7	0	0	---	0.00	30.189 
23:55	43.8	43.8	43.8	59	30.4	0	0	---	0.00	30.190 

CoCoRaHS
IN-AL-39
A2 Web Hosting
Creative Commons License
GoDaddy
Look for:

loaded 2017-12-12 15:09:46 • last modified 2010-11-18 10:43:29
Privacy PolicyDisclaimer
• wx.awcolley.com is powered by PmWiki v.2002016 •
• all content (unless otherwise noted) © 2017 A W Colley